sensor_id;sensor_type;location;lat;lon;timestamp;P1;durP1;ratioP1;P2;durP2;ratioP2
27580;SDS011;63557;52.302;7.964;2023-08-01T00:04:28;6.30;;;5.27;;
27580;SDS011;63557;52.302;7.964;2023-08-01T00:09:29;6.77;;;5.63;;
27580;SDS011;63557;52.302;7.964;2023-08-01T00:14:29;7.43;;;5.53;;
27580;SDS011;63557;52.302;7.964;2023-08-01T00:19:29;8.90;;;5.30;;
27580;SDS011;63557;52.302;7.964;2023-08-01T00:24:30;7.78;;;5.18;;
27580;SDS011;63557;52.302;7.964;2023-08-01T00:29:30;6.07;;;4.67;;
27580;SDS011;63557;52.302;7.964;2023-08-01T00:34:30;9.43;;;5.87;;
27580;SDS011;63557;52.302;7.964;2023-08-01T00:39:31;7.37;;;5.20;;
27580;SDS011;63557;52.302;7.964;2023-08-01T00:44:31;6.50;;;5.90;;
27580;SDS011;63557;52.302;7.964;2023-08-01T00:49:32;9.30;;;5.75;;
27580;SDS011;63557;52.302;7.964;2023-08-01T00:54:32;10.90;;;5.35;;
27580;SDS011;63557;52.302;7.964;2023-08-01T00:59:36;10.30;;;5.68;;
27580;SDS011;63557;52.302;7.964;2023-08-01T01:04:36;6.03;;;4.80;;
27580;SDS011;63557;52.302;7.964;2023-08-01T01:09:37;11.10;;;5.53;;
27580;SDS011;63557;52.302;7.964;2023-08-01T01:14:38;6.77;;;5.20;;
27580;SDS011;63557;52.302;7.964;2023-08-01T01:19:38;8.87;;;6.00;;
27580;SDS011;63557;52.302;7.964;2023-08-01T01:24:38;8.13;;;4.93;;
27580;SDS011;63557;52.302;7.964;2023-08-01T01:29:40;13.70;;;5.47;;
27580;SDS011;63557;52.302;7.964;2023-08-01T01:34:43;7.95;;;5.13;;
27580;SDS011;63557;52.302;7.964;2023-08-01T01:39:44;7.53;;;4.85;;
27580;SDS011;63557;52.302;7.964;2023-08-01T01:44:44;5.55;;;4.43;;
27580;SDS011;63557;52.302;7.964;2023-08-01T01:49:45;4.90;;;3.97;;
27580;SDS011;63557;52.302;7.964;2023-08-01T01:54:45;5.63;;;4.37;;
27580;SDS011;63557;52.302;7.964;2023-08-01T01:59:45;9.87;;;4.67;;
27580;SDS011;63557;52.302;7.964;2023-08-01T02:04:46;7.70;;;4.90;;
27580;SDS011;63557;52.302;7.964;2023-08-01T02:09:47;8.40;;;5.53;;
27580;SDS011;63557;52.302;7.964;2023-08-01T02:14:47;7.70;;;5.85;;
27580;SDS011;63557;52.302;7.964;2023-08-01T02:19:48;8.37;;;6.13;;
27580;SDS011;63557;52.302;7.964;2023-08-01T02:24:48;10.00;;;7.00;;
27580;SDS011;63557;52.302;7.964;2023-08-01T02:29:49;13.63;;;7.57;;
27580;SDS011;63557;52.302;7.964;2023-08-01T02:34:52;10.02;;;6.95;;
27580;SDS011;63557;52.302;7.964;2023-08-01T02:39:53;15.27;;;8.45;;
27580;SDS011;63557;52.302;7.964;2023-08-01T02:44:53;15.23;;;9.00;;
27580;SDS011;63557;52.302;7.964;2023-08-01T02:49:53;16.87;;;9.23;;
27580;SDS011;63557;52.302;7.964;2023-08-01T02:54:54;14.50;;;10.03;;
27580;SDS011;63557;52.302;7.964;2023-08-01T02:59:54;17.08;;;10.68;;
27580;SDS011;63557;52.302;7.964;2023-08-01T03:04:55;19.90;;;11.93;;
27580;SDS011;63557;52.302;7.964;2023-08-01T03:09:55;22.53;;;15.30;;
27580;SDS011;63557;52.302;7.964;2023-08-01T03:14:55;22.33;;;15.30;;
27580;SDS011;63557;52.302;7.964;2023-08-01T03:19:56;27.93;;;16.47;;
27580;SDS011;63557;52.302;7.964;2023-08-01T03:24:56;26.23;;;17.50;;
27580;SDS011;63557;52.302;7.964;2023-08-01T03:29:56;23.97;;;16.97;;
27580;SDS011;63557;52.302;7.964;2023-08-01T03:34:57;25.13;;;17.33;;
27580;SDS011;63557;52.302;7.964;2023-08-01T03:39:58;26.20;;;17.25;;
27580;SDS011;63557;52.302;7.964;2023-08-01T03:44:58;24.57;;;17.20;;
27580;SDS011;63557;52.302;7.964;2023-08-01T03:49:59;27.38;;;17.15;;
27580;SDS011;63557;52.302;7.964;2023-08-01T03:55:00;27.75;;;17.35;;
27580;SDS011;63557;52.302;7.964;2023-08-01T04:00:01;25.27;;;16.35;;
27580;SDS011;63557;52.302;7.964;2023-08-01T04:05:01;26.33;;;16.53;;
27580;SDS011;63557;52.302;7.964;2023-08-01T04:10:02;24.70;;;16.87;;
27580;SDS011;63557;52.302;7.964;2023-08-01T04:15:02;27.08;;;18.42;;
27580;SDS011;63557;52.302;7.964;2023-08-01T04:20:03;24.02;;;17.38;;
27580;SDS011;63557;52.302;7.964;2023-08-01T04:25:03;35.60;;;19.75;;
27580;SDS011;63557;52.302;7.964;2023-08-01T04:30:04;28.08;;;18.85;;
27580;SDS011;63557;52.302;7.964;2023-08-01T04:35:05;32.75;;;18.25;;
27580;SDS011;63557;52.302;7.964;2023-08-01T04:40:05;25.65;;;18.27;;
27580;SDS011;63557;52.302;7.964;2023-08-01T04:45:06;28.88;;;17.58;;
27580;SDS011;63557;52.302;7.964;2023-08-01T04:50:07;30.92;;;18.13;;
27580;SDS011;63557;52.302;7.964;2023-08-01T04:55:07;33.30;;;18.13;;
27580;SDS011;63557;52.302;7.964;2023-08-01T05:00:08;29.52;;;16.13;;
27580;SDS011;63557;52.302;7.964;2023-08-01T05:05:09;30.83;;;16.23;;
27580;SDS011;63557;52.302;7.964;2023-08-01T05:10:10;27.90;;;15.17;;
27580;SDS011;63557;52.302;7.964;2023-08-01T05:15:10;29.50;;;14.70;;
27580;SDS011;63557;52.302;7.964;2023-08-01T05:20:11;27.88;;;13.20;;
27580;SDS011;63557;52.302;7.964;2023-08-01T05:25:11;25.98;;;12.40;;
27580;SDS011;63557;52.302;7.964;2023-08-01T05:30:11;23.03;;;11.00;;
27580;SDS011;63557;52.302;7.964;2023-08-01T05:35:12;25.23;;;12.17;;
27580;SDS011;63557;52.302;7.964;2023-08-01T05:40:12;24.93;;;11.00;;
27580;SDS011;63557;52.302;7.964;2023-08-01T05:45:12;24.38;;;11.25;;
27580;SDS011;63557;52.302;7.964;2023-08-01T05:50:13;27.73;;;11.53;;
27580;SDS011;63557;52.302;7.964;2023-08-01T05:55:13;29.63;;;13.13;;
27580;SDS011;63557;52.302;7.964;2023-08-01T06:00:14;24.88;;;11.23;;
27580;SDS011;63557;52.302;7.964;2023-08-01T06:05:14;23.70;;;11.02;;
27580;SDS011;63557;52.302;7.964;2023-08-01T06:10:15;23.25;;;12.23;;
27580;SDS011;63557;52.302;7.964;2023-08-01T06:15:15;25.27;;;13.77;;
27580;SDS011;63557;52.302;7.964;2023-08-01T06:20:15;23.23;;;12.23;;
27580;SDS011;63557;52.302;7.964;2023-08-01T06:25:16;25.80;;;12.73;;
27580;SDS011;63557;52.302;7.964;2023-08-01T06:30:16;22.47;;;12.90;;
27580;SDS011;63557;52.302;7.964;2023-08-01T06:35:17;25.42;;;11.82;;
27580;SDS011;63557;52.302;7.964;2023-08-01T06:40:17;23.17;;;11.87;;
27580;SDS011;63557;52.302;7.964;2023-08-01T06:45:17;26.00;;;12.40;;
27580;SDS011;63557;52.302;7.964;2023-08-01T06:50:18;25.30;;;12.63;;
27580;SDS011;63557;52.302;7.964;2023-08-01T06:55:18;21.40;;;11.93;;
27580;SDS011;63557;52.302;7.964;2023-08-01T07:00:19;20.60;;;11.47;;
27580;SDS011;63557;52.302;7.964;2023-08-01T07:05:19;22.38;;;11.82;;
27580;SDS011;63557;52.302;7.964;2023-08-01T07:10:20;17.57;;;10.50;;
27580;SDS011;63557;52.302;7.964;2023-08-01T07:15:20;18.53;;;10.70;;
27580;SDS011;63557;52.302;7.964;2023-08-01T07:20:20;21.20;;;11.10;;
27580;SDS011;63557;52.302;7.964;2023-08-01T07:25:21;23.93;;;9.67;;
27580;SDS011;63557;52.302;7.964;2023-08-01T07:30:22;16.85;;;8.60;;
27580;SDS011;63557;52.302;7.964;2023-08-01T07:35:22;21.83;;;10.67;;
27580;SDS011;63557;52.302;7.964;2023-08-01T07:40:23;11.57;;;8.23;;
27580;SDS011;63557;52.302;7.964;2023-08-01T07:45:23;17.93;;;7.87;;
27580;SDS011;63557;52.302;7.964;2023-08-01T07:50:23;15.87;;;8.53;;
27580;SDS011;63557;52.302;7.964;2023-08-01T07:55:24;12.87;;;8.10;;
27580;SDS011;63557;52.302;7.964;2023-08-01T08:00:24;20.43;;;8.87;;
27580;SDS011;63557;52.302;7.964;2023-08-01T08:05:25;16.63;;;7.63;;
27580;SDS011;63557;52.302;7.964;2023-08-01T08:10:25;11.83;;;6.87;;
27580;SDS011;63557;52.302;7.964;2023-08-01T08:15:26;15.17;;;6.53;;
27580;SDS011;63557;52.302;7.964;2023-08-01T08:20:26;13.05;;;7.28;;
27580;SDS011;63557;52.302;7.964;2023-08-01T08:25:26;16.00;;;6.27;;
27580;SDS011;63557;52.302;7.964;2023-08-01T08:30:27;15.17;;;7.07;;
27580;SDS011;63557;52.302;7.964;2023-08-01T08:35:27;14.43;;;5.97;;
27580;SDS011;63557;52.302;7.964;2023-08-01T08:40:27;17.37;;;6.50;;
27580;SDS011;63557;52.302;7.964;2023-08-01T08:45:28;11.20;;;6.50;;
27580;SDS011;63557;52.302;7.964;2023-08-01T08:50:29;12.20;;;7.25;;
27580;SDS011;63557;52.302;7.964;2023-08-01T08:55:30;15.60;;;7.55;;
27580;SDS011;63557;52.302;7.964;2023-08-01T09:00:31;17.83;;;7.30;;
27580;SDS011;63557;52.302;7.964;2023-08-01T09:05:35;14.00;;;7.65;;
27580;SDS011;63557;52.302;7.964;2023-08-01T09:10:38;16.25;;;8.55;;
27580;SDS011;63557;52.302;7.964;2023-08-01T09:15:39;11.07;;;6.70;;
27580;SDS011;63557;52.302;7.964;2023-08-01T09:20:41;11.25;;;5.00;;
27580;SDS011;63557;52.302;7.964;2023-08-01T09:25:41;8.70;;;4.63;;
27580;SDS011;63557;52.302;7.964;2023-08-01T09:30:51;11.30;;;6.03;;
27580;SDS011;63557;52.302;7.964;2023-08-01T09:35:54;13.00;;;5.15;;
27580;SDS011;63557;52.302;7.964;2023-08-01T09:40:54;12.97;;;5.43;;
27580;SDS011;63557;52.302;7.964;2023-08-01T09:45:55;13.10;;;5.90;;
27580;SDS011;63557;52.302;7.964;2023-08-01T09:56:05;17.98;;;6.43;;
27580;SDS011;63557;52.302;7.964;2023-08-01T10:01:06;12.07;;;6.53;;
27580;SDS011;63557;52.302;7.964;2023-08-01T10:06:06;9.03;;;4.70;;
27580;SDS011;63557;52.302;7.964;2023-08-01T10:11:07;8.23;;;4.40;;
27580;SDS011;63557;52.302;7.964;2023-08-01T10:16:09;10.32;;;4.40;;
27580;SDS011;63557;52.302;7.964;2023-08-01T10:21:11;8.95;;;4.15;;
27580;SDS011;63557;52.302;7.964;2023-08-01T10:26:12;8.25;;;3.35;;
27580;SDS011;63557;52.302;7.964;2023-08-01T10:31:14;7.85;;;3.50;;
27580;SDS011;63557;52.302;7.964;2023-08-01T10:36:18;11.13;;;3.97;;
27580;SDS011;63557;52.302;7.964;2023-08-01T10:46:19;13.38;;;4.65;;
27580;SDS011;63557;52.302;7.964;2023-08-01T10:51:20;10.47;;;4.13;;
27580;SDS011;63557;52.302;7.964;2023-08-01T10:56:20;5.17;;;3.63;;
27580;SDS011;63557;52.302;7.964;2023-08-01T11:01:21;12.80;;;3.90;;
27580;SDS011;63557;52.302;7.964;2023-08-01T11:06:21;6.73;;;3.87;;
27580;SDS011;63557;52.302;7.964;2023-08-01T11:11:21;9.50;;;3.83;;
27580;SDS011;63557;52.302;7.964;2023-08-01T11:16:22;5.83;;;2.80;;
27580;SDS011;63557;52.302;7.964;2023-08-01T11:21:25;8.93;;;4.30;;
27580;SDS011;63557;52.302;7.964;2023-08-01T11:26:27;10.23;;;3.37;;
27580;SDS011;63557;52.302;7.964;2023-08-01T11:31:27;8.38;;;3.70;;
27580;SDS011;63557;52.302;7.964;2023-08-01T11:36:28;12.27;;;3.83;;
27580;SDS011;63557;52.302;7.964;2023-08-01T11:41:29;10.07;;;3.55;;
27580;SDS011;63557;52.302;7.964;2023-08-01T11:46:32;4.15;;;3.15;;
27580;SDS011;63557;52.302;7.964;2023-08-01T11:51:43;9.93;;;3.63;;
27580;SDS011;63557;52.302;7.964;2023-08-01T11:56:43;8.15;;;3.95;;
27580;SDS011;63557;52.302;7.964;2023-08-01T12:01:44;9.60;;;4.47;;
27580;SDS011;63557;52.302;7.964;2023-08-01T12:06:45;12.23;;;4.20;;
27580;SDS011;63557;52.302;7.964;2023-08-01T12:11:46;8.93;;;4.60;;
27580;SDS011;63557;52.302;7.964;2023-08-01T12:16:46;7.22;;;4.05;;
27580;SDS011;63557;52.302;7.964;2023-08-01T12:21:47;10.77;;;4.22;;
27580;SDS011;63557;52.302;7.964;2023-08-01T12:26:47;6.38;;;4.45;;
27580;SDS011;63557;52.302;7.964;2023-08-01T12:31:48;8.17;;;4.30;;
27580;SDS011;63557;52.302;7.964;2023-08-01T12:36:49;10.63;;;4.38;;
27580;SDS011;63557;52.302;7.964;2023-08-01T12:41:49;6.93;;;3.97;;
27580;SDS011;63557;52.302;7.964;2023-08-01T12:46:49;7.27;;;3.40;;
27580;SDS011;63557;52.302;7.964;2023-08-01T12:51:50;6.30;;;2.73;;
27580;SDS011;63557;52.302;7.964;2023-08-01T12:56:50;11.63;;;3.67;;
27580;SDS011;63557;52.302;7.964;2023-08-01T13:01:50;5.65;;;2.72;;
27580;SDS011;63557;52.302;7.964;2023-08-01T13:06:51;4.60;;;2.87;;
27580;SDS011;63557;52.302;7.964;2023-08-01T13:11:51;5.60;;;2.90;;
27580;SDS011;63557;52.302;7.964;2023-08-01T13:16:51;5.15;;;2.63;;
27580;SDS011;63557;52.302;7.964;2023-08-01T13:21:52;9.27;;;3.53;;
27580;SDS011;63557;52.302;7.964;2023-08-01T13:26:52;2.90;;;2.23;;
27580;SDS011;63557;52.302;7.964;2023-08-01T13:31:53;6.87;;;2.67;;
27580;SDS011;63557;52.302;7.964;2023-08-01T13:36:53;4.72;;;2.42;;
27580;SDS011;63557;52.302;7.964;2023-08-01T13:41:54;3.50;;;2.33;;
27580;SDS011;63557;52.302;7.964;2023-08-01T13:46:54;6.63;;;2.80;;
27580;SDS011;63557;52.302;7.964;2023-08-01T13:51:54;4.37;;;2.63;;
27580;SDS011;63557;52.302;7.964;2023-08-01T13:56:55;4.63;;;2.17;;
27580;SDS011;63557;52.302;7.964;2023-08-01T14:01:56;8.77;;;2.73;;
27580;SDS011;63557;52.302;7.964;2023-08-01T14:06:56;9.10;;;2.65;;
27580;SDS011;63557;52.302;7.964;2023-08-01T14:11:56;5.57;;;2.30;;
27580;SDS011;63557;52.302;7.964;2023-08-01T14:16:57;4.83;;;2.63;;
27580;SDS011;63557;52.302;7.964;2023-08-01T14:21:57;6.17;;;2.30;;
27580;SDS011;63557;52.302;7.964;2023-08-01T14:26:57;4.70;;;2.13;;
27580;SDS011;63557;52.302;7.964;2023-08-01T14:31:58;2.57;;;1.60;;
27580;SDS011;63557;52.302;7.964;2023-08-01T14:36:58;4.07;;;2.10;;
27580;SDS011;63557;52.302;7.964;2023-08-01T14:41:59;5.33;;;1.90;;
27580;SDS011;63557;52.302;7.964;2023-08-01T14:46:59;4.67;;;2.00;;
27580;SDS011;63557;52.302;7.964;2023-08-01T14:51:59;7.60;;;2.43;;
27580;SDS011;63557;52.302;7.964;2023-08-01T14:57:00;8.63;;;2.40;;
27580;SDS011;63557;52.302;7.964;2023-08-01T15:02:00;5.60;;;2.20;;
27580;SDS011;63557;52.302;7.964;2023-08-01T15:07:01;8.13;;;2.70;;
27580;SDS011;63557;52.302;7.964;2023-08-01T15:12:01;5.85;;;2.15;;
27580;SDS011;63557;52.302;7.964;2023-08-01T15:17:01;5.67;;;2.00;;
27580;SDS011;63557;52.302;7.964;2023-08-01T15:22:02;5.73;;;2.10;;
27580;SDS011;63557;52.302;7.964;2023-08-01T15:27:02;4.50;;;2.10;;
27580;SDS011;63557;52.302;7.964;2023-08-01T15:32:03;5.57;;;2.03;;
27580;SDS011;63557;52.302;7.964;2023-08-01T15:37:04;6.78;;;2.30;;
27580;SDS011;63557;52.302;7.964;2023-08-01T15:42:07;5.47;;;2.90;;
27580;SDS011;63557;52.302;7.964;2023-08-01T15:47:07;4.73;;;2.30;;
27580;SDS011;63557;52.302;7.964;2023-08-01T15:52:07;3.77;;;2.20;;
27580;SDS011;63557;52.302;7.964;2023-08-01T15:57:08;5.80;;;2.50;;
27580;SDS011;63557;52.302;7.964;2023-08-01T16:02:08;7.13;;;2.38;;
27580;SDS011;63557;52.302;7.964;2023-08-01T16:07:09;4.78;;;2.10;;
27580;SDS011;63557;52.302;7.964;2023-08-01T16:12:09;7.73;;;2.60;;
27580;SDS011;63557;52.302;7.964;2023-08-01T16:17:10;6.97;;;2.20;;
27580;SDS011;63557;52.302;7.964;2023-08-01T16:22:10;6.07;;;2.60;;
27580;SDS011;63557;52.302;7.964;2023-08-01T16:27:10;6.50;;;2.90;;
27580;SDS011;63557;52.302;7.964;2023-08-01T16:32:11;7.67;;;2.50;;
27580;SDS011;63557;52.302;7.964;2023-08-01T16:37:11;7.00;;;2.40;;
27580;SDS011;63557;52.302;7.964;2023-08-01T16:42:11;8.97;;;2.73;;
27580;SDS011;63557;52.302;7.964;2023-08-01T16:47:13;6.03;;;2.27;;
27580;SDS011;63557;52.302;7.964;2023-08-01T16:52:14;6.38;;;2.00;;
27580;SDS011;63557;52.302;7.964;2023-08-01T16:57:14;4.68;;;1.77;;
27580;SDS011;63557;52.302;7.964;2023-08-01T17:02:15;6.97;;;2.10;;
27580;SDS011;63557;52.302;7.964;2023-08-01T17:07:15;7.95;;;2.03;;
27580;SDS011;63557;52.302;7.964;2023-08-01T17:12:15;8.27;;;2.67;;
27580;SDS011;63557;52.302;7.964;2023-08-01T17:17:16;6.93;;;2.07;;
27580;SDS011;63557;52.302;7.964;2023-08-01T17:22:16;5.73;;;2.50;;
27580;SDS011;63557;52.302;7.964;2023-08-01T17:27:17;2.90;;;1.90;;
27580;SDS011;63557;52.302;7.964;2023-08-01T17:32:18;8.18;;;2.20;;
27580;SDS011;63557;52.302;7.964;2023-08-01T17:37:19;3.25;;;1.90;;
27580;SDS011;63557;52.302;7.964;2023-08-01T17:42:19;5.17;;;2.20;;
27580;SDS011;63557;52.302;7.964;2023-08-01T17:47:19;6.80;;;2.10;;
27580;SDS011;63557;52.302;7.964;2023-08-01T17:52:20;4.17;;;1.73;;
27580;SDS011;63557;52.302;7.964;2023-08-01T17:57:20;5.43;;;2.33;;
27580;SDS011;63557;52.302;7.964;2023-08-01T18:02:20;4.13;;;2.30;;
27580;SDS011;63557;52.302;7.964;2023-08-01T18:07:21;3.57;;;2.17;;
27580;SDS011;63557;52.302;7.964;2023-08-01T18:12:21;6.70;;;2.73;;
27580;SDS011;63557;52.302;7.964;2023-08-01T18:17:21;5.90;;;2.43;;
27580;SDS011;63557;52.302;7.964;2023-08-01T18:22:22;9.00;;;2.40;;
27580;SDS011;63557;52.302;7.964;2023-08-01T18:27:22;8.83;;;2.70;;
27580;SDS011;63557;52.302;7.964;2023-08-01T18:32:22;6.77;;;2.40;;
27580;SDS011;63557;52.302;7.964;2023-08-01T18:37:23;6.20;;;2.55;;
27580;SDS011;63557;52.302;7.964;2023-08-01T18:42:23;5.43;;;2.20;;
27580;SDS011;63557;52.302;7.964;2023-08-01T18:47:24;10.73;;;2.65;;
27580;SDS011;63557;52.302;7.964;2023-08-01T18:52:24;3.63;;;2.07;;
27580;SDS011;63557;52.302;7.964;2023-08-01T18:57:25;6.78;;;2.65;;
27580;SDS011;63557;52.302;7.964;2023-08-01T19:02:25;5.23;;;2.50;;
27580;SDS011;63557;52.302;7.964;2023-08-01T19:07:25;7.43;;;2.30;;
27580;SDS011;63557;52.302;7.964;2023-08-01T19:12:27;4.57;;;2.35;;
27580;SDS011;63557;52.302;7.964;2023-08-01T19:17:28;9.80;;;2.97;;
27580;SDS011;63557;52.302;7.964;2023-08-01T19:22:28;5.83;;;2.17;;
27580;SDS011;63557;52.302;7.964;2023-08-01T19:27:28;7.00;;;2.58;;
27580;SDS011;63557;52.302;7.964;2023-08-01T19:32:30;9.05;;;2.20;;
27580;SDS011;63557;52.302;7.964;2023-08-01T19:37:31;7.00;;;3.03;;
27580;SDS011;63557;52.302;7.964;2023-08-01T19:42:31;6.00;;;2.67;;
27580;SDS011;63557;52.302;7.964;2023-08-01T19:47:31;6.00;;;2.70;;
27580;SDS011;63557;52.302;7.964;2023-08-01T19:52:32;8.03;;;2.90;;
27580;SDS011;63557;52.302;7.964;2023-08-01T19:57:33;7.68;;;3.00;;
27580;SDS011;63557;52.302;7.964;2023-08-01T20:02:33;8.55;;;2.95;;
27580;SDS011;63557;52.302;7.964;2023-08-01T20:07:39;4.78;;;2.53;;
27580;SDS011;63557;52.302;7.964;2023-08-01T20:12:39;9.33;;;2.70;;
27580;SDS011;63557;52.302;7.964;2023-08-01T20:17:39;4.83;;;2.70;;
27580;SDS011;63557;52.302;7.964;2023-08-01T20:22:40;5.90;;;1.83;;
27580;SDS011;63557;52.302;7.964;2023-08-01T20:27:41;4.13;;;1.70;;
27580;SDS011;63557;52.302;7.964;2023-08-01T20:32:41;4.25;;;1.88;;
27580;SDS011;63557;52.302;7.964;2023-08-01T20:37:44;3.40;;;1.75;;
27580;SDS011;63557;52.302;7.964;2023-08-01T20:42:45;7.05;;;2.08;;
27580;SDS011;63557;52.302;7.964;2023-08-01T20:47:47;4.03;;;2.30;;
27580;SDS011;63557;52.302;7.964;2023-08-01T20:52:48;6.78;;;2.30;;
27580;SDS011;63557;52.302;7.964;2023-08-01T20:57:48;3.23;;;2.30;;
27580;SDS011;63557;52.302;7.964;2023-08-01T21:02:48;17.10;;;4.53;;
27580;SDS011;63557;52.302;7.964;2023-08-01T21:07:49;6.95;;;2.72;;
27580;SDS011;63557;52.302;7.964;2023-08-01T21:12:51;6.50;;;3.17;;
27580;SDS011;63557;52.302;7.964;2023-08-01T21:17:52;7.17;;;3.10;;
27580;SDS011;63557;52.302;7.964;2023-08-01T21:22:53;7.90;;;3.03;;
27580;SDS011;63557;52.302;7.964;2023-08-01T21:27:53;7.60;;;3.53;;
27580;SDS011;63557;52.302;7.964;2023-08-01T21:32:53;6.13;;;2.87;;
27580;SDS011;63557;52.302;7.964;2023-08-01T21:37:54;5.97;;;3.27;;
27580;SDS011;63557;52.302;7.964;2023-08-01T21:42:54;7.87;;;3.33;;
27580;SDS011;63557;52.302;7.964;2023-08-01T21:47:55;11.17;;;3.50;;
27580;SDS011;63557;52.302;7.964;2023-08-01T21:52:56;8.20;;;3.20;;
27580;SDS011;63557;52.302;7.964;2023-08-01T21:57:56;9.80;;;3.63;;
27580;SDS011;63557;52.302;7.964;2023-08-01T22:02:56;8.67;;;3.33;;
27580;SDS011;63557;52.302;7.964;2023-08-01T22:07:57;8.13;;;3.57;;
27580;SDS011;63557;52.302;7.964;2023-08-01T22:12:57;9.60;;;3.57;;
27580;SDS011;63557;52.302;7.964;2023-08-01T22:17:58;8.50;;;3.33;;
27580;SDS011;63557;52.302;7.964;2023-08-01T22:22:58;7.57;;;3.58;;
27580;SDS011;63557;52.302;7.964;2023-08-01T22:27:58;8.23;;;3.10;;
27580;SDS011;63557;52.302;7.964;2023-08-01T22:32:59;8.60;;;3.70;;
27580;SDS011;63557;52.302;7.964;2023-08-01T22:37:59;9.37;;;3.60;;
27580;SDS011;63557;52.302;7.964;2023-08-01T22:42:59;12.90;;;3.57;;
27580;SDS011;63557;52.302;7.964;2023-08-01T22:48:00;10.00;;;3.80;;
27580;SDS011;63557;52.302;7.964;2023-08-01T22:53:00;6.23;;;2.90;;
27580;SDS011;63557;52.302;7.964;2023-08-01T22:58:01;10.82;;;3.65;;
27580;SDS011;63557;52.302;7.964;2023-08-01T23:03:01;7.77;;;3.40;;
27580;SDS011;63557;52.302;7.964;2023-08-01T23:08:01;9.80;;;3.70;;
27580;SDS011;63557;52.302;7.964;2023-08-01T23:13:02;15.20;;;3.77;;
27580;SDS011;63557;52.302;7.964;2023-08-01T23:18:03;8.50;;;3.17;;
27580;SDS011;63557;52.302;7.964;2023-08-01T23:23:03;12.07;;;2.90;;
27580;SDS011;63557;52.302;7.964;2023-08-01T23:28:04;10.63;;;3.67;;
27580;SDS011;63557;52.302;7.964;2023-08-01T23:33:04;13.10;;;4.15;;
27580;SDS011;63557;52.302;7.964;2023-08-01T23:38:04;8.97;;;3.10;;
27580;SDS011;63557;52.302;7.964;2023-08-01T23:43:05;13.63;;;3.57;;
27580;SDS011;63557;52.302;7.964;2023-08-01T23:48:06;9.85;;;3.33;;
27580;SDS011;63557;52.302;7.964;2023-08-01T23:53:07;7.00;;;3.17;;
27580;SDS011;63557;52.302;7.964;2023-08-01T23:58:07;12.53;;;3.10;;
